KERO2: Robert S. Kerr Lock & Dam & Reservoir (L&D 15)

Data processed at Sat Jul 14 2018 23:03


All information presented herein is the property of the government of the United States of America and may be revised or deleted at any time without prior notice.
Dissemination of this information without the expressed written consent of the Public Affairs Office, Tulsa District U.S. Army Corps of Engineers is strictly prohibited.
These data are gathered electronically and, as presented, have not undergone any form of quality control. These data are not guaranteed to be valid or correct.
Go to home page.
Go to station list.

Upstream stations:

Downstream station:
Previous Day
Next Day
Current Day
    
SHEF ID:       KERO2     RS Kerr LD15
STATION TYPE:  NAVIGATION LOCK
Normal Pool:  Bottom =   458.00, Top =   460.00

               PRECIP ELEVATION   STORAGE   TW-ELEV    INFLOW   RELEASE  AIR-TEMP  WIND-DIRWIND-SPEED REL-HUMID SOLAR-RAD   VOLTAGE  BAT-LOAD
                   in        ft     ac-ft        ft       cfs       cfs         F       deg       mph         %      W/m2      volt      volt
              Ccp-Rev   Ccp-Rev   Ccp-Rev   Ccp-Rev  Regi-Rev  Regi-Rev   Ccp-Rev   Ccp-Rev   Ccp-Rev   Ccp-Rev   Ccp-Rev   Ccp-Rev   Ccp-Rev
(US/Central)
07/12 00:00      0.00    459.27    494227    412.54     21059      7500     81.32     20.20      1.64     93.53      0.00     13.87     13.36
07/12 01:00      0.00    459.29    495089    412.44     16887      7500     81.21     46.90      1.70     93.89      0.00     13.87     13.36
07/12 02:00      0.00    459.31    495951    412.38     18973      7500     79.77     60.00      2.45     96.46      0.00     13.87     13.42
07/12 03:00      0.00    459.33    496813    412.42     18973      7500     78.80     33.00      2.54    100.31      0.00     13.71     13.42
07/12 04:00      0.00    459.37    498537    412.37     17930      7500     76.95    358.10      0.69    100.32      0.00     13.87     13.42
07/12 05:00      0.00    459.38    498968    412.42     16887      7500     77.92    358.20      1.17    100.20      0.00     13.87     13.42
07/12 06:00      0.00    459.39    499399    412.37     15258      7500     77.38     11.50      1.11    100.26      0.00     13.87     13.42
07/12 07:00      0.00    459.40    499830    412.32      9586      7500     78.15     28.30      1.40    100.26     17.00     13.87     13.42
07/12 08:00      0.00    459.41    500261    412.31     17930      7500     80.56     22.90      0.58     98.36    155.00     13.87     13.42
07/12 09:00      0.00    459.39    499399    412.34     16050      7500     84.18     96.60      0.58     84.14    374.00     13.87     13.42
07/12 10:00      0.00    459.48    503278    412.36     14169      7500     87.60     45.90      3.58     71.44    590.00     13.88     13.42
07/12 11:00      0.00    459.46    502416    412.31     12875      7500     88.70     92.00      1.91     65.45    772.00     13.86     13.48
07/12 12:00      0.00    459.48    503278    412.58     13183      7500     92.21     94.90      2.28     55.87    919.00     13.87     13.36
07/12 13:00      0.00    459.44    501554    413.25      3647     15800     95.61    208.90      1.27     48.53    920.00     13.88     13.42
07/12 14:00      0.00    459.40    499830    413.58      6421     22400     95.25    125.70      0.81     42.06    988.00     13.91     13.42
07/12 15:00      0.00    459.37    498537    413.35      7109     22400     97.02    185.40      0.32     42.12    860.00     13.89     13.48
07/12 16:00      0.00    459.36    498106    413.39      7798     22400     96.91    212.70      3.08     41.20    932.00     13.90     13.42
07/12 17:00      0.00    459.33    496813    413.36      8841     22400     97.34    173.70      1.95     38.82    750.00     13.90     13.36
07/12 18:00      0.00    459.30    495520    413.36      7747     22400     96.91    112.80      1.51     40.53    607.00     13.91     13.36
07/12 19:00      0.00    459.27    494227    413.19      6396     22400     89.87     55.80      3.08     60.00    466.00     13.91     13.36
07/12 20:00      0.00    459.19    490779    411.96      7131      6500     85.26    177.70      8.49     70.26     75.00     13.91     13.36
07/12 21:00      0.00    459.37    498537    411.86     14124         0     83.07    167.70      0.72     73.98     62.00     13.91     13.36
07/12 22:00      0.00    459.30    495520    412.39     14679         0     79.88     41.20      1.22     83.02      0.00     13.91     13.36
07/12 23:00      0.00    459.38    498968    411.80     14744         0     78.01      3.20      0.92     85.52      0.00     13.91     13.36